Time;durP1;ratioP1;P1;durP2;ratioP2;P2;SDS_P1;SDS_P2;PMS_P1;PMS_P2;Temp;Humidity;BMP_temperature;BMP_pressure;BME280_temperature;BME280_humidity;BME280_pressure;Samples;Min_cycle;Max_cycle;Signal;HPM_P1;HPM_P2
2021/12/22 00:01:18;;;;;;;13.80;11.30;;;1.10;99.90;;;;;;4998974;28;20193;-49
2021/12/22 00:03:47;;;;;;;15.20;11.33;;;0.70;99.90;;;;;;5000205;28;20212;-50
2021/12/22 00:06:14;;;;;;;23.60;11.67;;;0.70;99.90;;;;;;4994858;28;20481;-50
2021/12/22 00:08:40;;;;;;;18.93;11.47;;;0.80;99.90;;;;;;4998747;28;20442;-47
2021/12/22 00:11:06;;;;;;;19.33;11.93;;;0.90;99.90;;;;;;4996705;28;20874;-49
2021/12/22 00:13:31;;;;;;;16.17;11.30;;;0.70;99.90;;;;;;4996819;28;20637;-49
2021/12/22 00:15:57;;;;;;;15.40;11.43;;;0.70;99.90;;;;;;4998101;28;20259;-48
2021/12/22 00:18:23;;;;;;;16.73;11.20;;;0.30;99.90;;;;;;4995883;28;20293;-49
2021/12/22 00:20:48;;;;;;;13.00;10.83;;;0.10;99.90;;;;;;4996443;28;21056;-47
2021/12/22 00:23:14;;;;;;;14.43;10.77;;;0.10;99.90;;;;;;4996016;28;20726;-45
2021/12/22 00:25:40;;;;;;;15.67;12.23;;;0.10;99.90;;;;;;5000346;28;20716;-48
2021/12/22 00:28:05;;;;;;;12.50;9.83;;;-0.20;99.90;;;;;;4997971;28;20402;-50
2021/12/22 00:30:31;;;;;;;16.07;12.07;;;-0.30;99.90;;;;;;4997833;28;20191;-47
2021/12/22 00:33:03;;;;;;;13.60;11.20;;;-0.40;99.90;;;;;;4998464;28;20201;-51
2021/12/22 00:35:38;;;;;;;17.40;12.90;;;-0.40;99.90;;;;;;4994646;28;20952;-49
2021/12/22 00:38:05;;;;;;;15.83;12.70;;;-0.70;99.90;;;;;;4983724;28;20870;-50
2021/12/22 00:40:31;;;;;;;16.70;12.23;;;-1.00;99.90;;;;;;4993838;28;20867;-50
2021/12/22 00:42:56;;;;;;;16.83;11.93;;;-1.10;99.90;;;;;;4995818;28;20444;-50
2021/12/22 00:45:24;;;;;;;17.77;13.00;;;-0.90;99.90;;;;;;4997046;28;20272;-49
2021/12/22 00:47:50;;;;;;;20.60;13.00;;;-1.30;99.90;;;;;;4996255;28;20559;-50
2021/12/22 00:50:16;;;;;;;16.27;11.63;;;-1.30;99.90;;;;;;4996688;28;20444;-47
2021/12/22 00:52:42;;;;;;;15.87;11.23;;;-1.40;99.90;;;;;;4991495;28;20741;-50
2021/12/22 00:55:09;;;;;;;16.53;11.17;;;-1.30;99.90;;;;;;4995137;28;20494;-51
2021/12/22 00:57:38;;;;;;;19.97;12.90;;;-1.30;99.90;;;;;;4999675;28;20501;-49
2021/12/22 01:00:06;;;;;;;16.13;12.17;;;-1.60;99.90;;;;;;4998127;28;20472;-50
2021/12/22 01:02:32;;;;;;;18.70;11.73;;;-1.60;99.90;;;;;;4994645;28;20524;-52
2021/12/22 01:04:58;;;;;;;17.33;11.87;;;-1.90;99.90;;;;;;4996974;28;22389;-47
2021/12/22 01:07:24;;;;;;;17.40;11.83;;;-2.20;99.90;;;;;;4980351;28;20460;-49
2021/12/22 01:09:50;;;;;;;21.60;13.90;;;-1.90;99.90;;;;;;4997846;28;20197;-50
2021/12/22 01:12:15;;;;;;;21.53;12.43;;;-1.80;99.90;;;;;;4998722;28;20226;-49
2021/12/22 01:14:42;;;;;;;24.60;13.77;;;-1.70;99.90;;;;;;4998934;28;20442;-50
2021/12/22 01:17:11;;;;;;;22.07;12.47;;;-1.80;99.90;;;;;;4996930;28;20459;-50
2021/12/22 01:20:02;;;;;;;24.60;12.60;;;-2.00;99.90;;;;;;4993908;28;20596;-47
2021/12/22 01:22:46;;;;;;;19.40;12.00;;;-2.30;99.90;;;;;;4997379;28;20447;-50
2021/12/22 01:25:14;;;;;;;22.03;13.20;;;-2.30;99.90;;;;;;4978982;28;20449;-47
2021/12/22 01:27:42;;;;;;;16.77;10.20;;;-2.40;99.90;;;;;;4995853;28;20452;-49
2021/12/22 01:30:20;;;;;;;32.00;12.40;;;-2.50;99.90;;;;;;4994276;28;20444;-48
2021/12/22 01:32:47;;;;;;;37.93;14.03;;;-2.40;99.90;;;;;;4995499;28;20467;-49
2021/12/22 01:35:16;;;;;;;27.43;13.13;;;-2.60;99.90;;;;;;4997703;28;20461;-46
2021/12/22 01:37:42;;;;;;;23.83;12.37;;;-2.20;99.90;;;;;;4992352;28;20444;-46
2021/12/22 01:40:10;;;;;;;25.37;11.67;;;-1.90;99.90;;;;;;5000406;28;20526;-47
2021/12/22 01:42:36;;;;;;;31.40;13.27;;;-1.80;99.90;;;;;;4998594;28;20185;-48
2021/12/22 01:50:46;;;;;;;26.93;11.67;;;-2.00;99.90;;;;;;4997961;28;20491;-45
2021/12/22 01:53:20;;;;;;;31.03;13.60;;;-2.20;99.90;;;;;;4999031;28;20715;-48
2021/12/22 01:56:09;;;;;;;17.67;11.87;;;-2.50;99.90;;;;;;5001240;28;20552;-49
2021/12/22 01:58:38;;;;;;;19.17;11.87;;;-2.30;99.90;;;;;;5001828;28;20436;-50
2021/12/22 02:01:05;;;;;;;32.33;13.60;;;-2.20;99.90;;;;;;4985776;28;20630;-51
2021/12/22 02:03:31;;;;;;;19.73;12.43;;;-2.20;99.90;;;;;;4999646;28;20459;-50
2021/12/22 02:05:57;;;;;;;26.33;12.77;;;-2.00;99.90;;;;;;4997883;28;20462;-49
2021/12/22 02:08:22;;;;;;;25.17;13.13;;;-2.00;99.90;;;;;;5004210;28;20441;-49
2021/12/22 02:10:48;;;;;;;19.90;12.10;;;-2.10;99.90;;;;;;4999697;28;20550;-50
2021/12/22 02:13:22;;;;;;;19.00;11.37;;;-1.80;99.90;;;;;;4982320;28;20580;-50
2021/12/22 02:15:48;;;;;;;18.90;12.87;;;-1.80;99.90;;;;;;4998578;28;20451;-51
2021/12/22 02:18:18;;;;;;;20.87;12.33;;;-1.60;99.90;;;;;;4998817;28;20451;-46
2021/12/22 02:20:46;;;;;;;20.00;10.50;;;-1.50;99.90;;;;;;5000004;28;20506;-47
2021/12/22 02:23:12;;;;;;;23.43;11.40;;;-1.50;99.90;;;;;;5001631;28;21144;-46
2021/12/22 02:25:45;;;;;;;19.27;11.83;;;-1.50;99.90;;;;;;4998128;28;20521;-47
2021/12/22 02:28:18;;;;;;;21.10;12.30;;;-1.80;99.90;;;;;;5001687;28;20431;-48
2021/12/22 02:30:44;;;;;;;19.33;13.27;;;-1.40;99.90;;;;;;4997610;28;20452;-47
2021/12/22 02:33:21;;;;;;;19.80;12.07;;;-1.20;99.90;;;;;;4999449;28;21079;-46
2021/12/22 02:38:44;;;;;;;20.70;13.30;;;-1.20;99.90;;;;;;4999652;28;20468;-46
2021/12/22 02:41:13;;;;;;;18.73;12.33;;;-1.20;99.90;;;;;;4984530;28;20570;-46
2021/12/22 02:43:46;;;;;;;18.70;12.20;;;-1.00;99.90;;;;;;5000765;28;20441;-50
2021/12/22 02:46:14;;;;;;;17.07;11.57;;;-0.80;99.90;;;;;;4996577;28;20456;-51
2021/12/22 02:48:40;;;;;;;18.50;12.00;;;-0.70;99.90;;;;;;5000952;28;20455;-48
2021/12/22 02:51:06;;;;;;;20.20;12.70;;;-0.50;99.90;;;;;;5000002;28;20488;-47
2021/12/22 02:53:43;;;;;;;19.30;12.40;;;-0.40;99.90;;;;;;4999715;28;20448;-49
2021/12/22 03:04:10;;;;;;;18.13;11.87;;;-1.30;99.90;;;;;;5000541;28;20442;-46
2021/12/22 03:09:30;;;;;;;19.80;12.50;;;-1.10;99.90;;;;;;4997834;28;20448;-45
2021/12/22 03:11:59;;;;;;;19.73;12.47;;;-0.90;99.90;;;;;;4999493;28;20442;-45
2021/12/22 03:14:25;;;;;;;21.77;12.83;;;-0.80;99.90;;;;;;4998052;28;20678;-45
2021/12/22 03:16:52;;;;;;;19.73;12.40;;;-0.80;99.90;;;;;;5000315;28;20462;-49
2021/12/22 03:19:23;;;;;;;20.30;11.80;;;-0.70;99.90;;;;;;5004756;28;20553;-47
2021/12/22 03:21:51;;;;;;;17.17;12.50;;;-0.70;99.90;;;;;;5002537;28;20436;-50
2021/12/22 03:24:19;;;;;;;19.07;11.17;;;-0.60;99.90;;;;;;5004879;28;20451;-50
2021/12/22 03:26:45;;;;;;;18.70;12.33;;;-0.90;99.90;;;;;;5003624;28;20507;-50
2021/12/22 03:29:13;;;;;;;22.27;12.20;;;-0.80;99.90;;;;;;5004821;28;20924;-50
2021/12/22 03:31:39;;;;;;;18.40;13.07;;;-0.70;99.90;;;;;;5001362;28;20980;-50
2021/12/22 03:34:05;;;;;;;24.43;13.20;;;-0.80;99.90;;;;;;5003102;28;20435;-49
2021/12/22 03:36:31;;;;;;;19.73;12.90;;;-1.00;99.90;;;;;;5003057;28;20445;-52
2021/12/22 03:38:57;;;;;;;17.83;12.30;;;-0.90;99.90;;;;;;5001994;28;20437;-49
2021/12/22 03:41:22;;;;;;;21.33;12.57;;;-0.80;99.90;;;;;;5001487;28;21138;-48
2021/12/22 03:43:48;;;;;;;19.17;12.10;;;-0.80;99.90;;;;;;5001838;28;20798;-48
2021/12/22 03:46:15;;;;;;;22.40;13.23;;;-0.90;99.90;;;;;;5003694;28;20284;-49
2021/12/22 03:48:42;;;;;;;21.03;12.90;;;-1.00;99.90;;;;;;5003640;28;20209;-46
2021/12/22 03:51:08;;;;;;;19.30;12.70;;;-0.90;99.90;;;;;;5003278;28;20948;-49
2021/12/22 03:53:34;;;;;;;16.37;11.30;;;-0.80;99.90;;;;;;5005700;28;20435;-48
2021/12/22 03:55:59;;;;;;;19.80;12.97;;;-1.10;99.90;;;;;;5001842;28;20537;-47
2021/12/22 03:58:25;;;;;;;20.03;11.93;;;-1.50;99.90;;;;;;5003379;28;20256;-48
2021/12/22 04:00:52;;;;;;;16.77;11.37;;;-1.70;99.90;;;;;;5004572;28;20209;-47
2021/12/22 04:03:21;;;;;;;21.77;12.57;;;-1.60;99.90;;;;;;5001615;28;20667;-47
2021/12/22 04:05:48;;;;;;;18.87;12.80;;;-1.30;99.90;;;;;;5000320;28;20985;-50
2021/12/22 04:08:17;;;;;;;19.10;11.97;;;-1.20;99.90;;;;;;5002546;28;20437;-45
2021/12/22 04:10:43;;;;;;;18.87;11.70;;;-1.30;99.90;;;;;;5000581;28;20454;-45
2021/12/22 04:13:09;;;;;;;16.77;11.70;;;-1.30;99.90;;;;;;5004842;28;20796;-50
2021/12/22 04:15:35;;;;;;;16.57;12.60;;;-1.60;99.90;;;;;;5000551;28;20589;-46
2021/12/22 04:18:01;;;;;;;18.33;12.70;;;-1.30;99.90;;;;;;5000003;28;20463;-48
2021/12/22 04:20:30;;;;;;;19.33;13.10;;;-1.20;99.90;;;;;;5002042;28;20284;-52
2021/12/22 04:22:56;;;;;;;19.80;11.73;;;-1.20;99.90;;;;;;4999783;28;20445;-46
2021/12/22 04:25:22;;;;;;;16.73;12.77;;;-1.20;99.90;;;;;;5001156;28;20428;-46
2021/12/22 04:27:50;;;;;;;22.10;12.80;;;-1.20;99.90;;;;;;5002338;28;20451;-47
2021/12/22 04:30:17;;;;;;;19.33;12.57;;;-1.10;99.90;;;;;;4998975;28;20440;-50
2021/12/22 04:32:42;;;;;;;18.03;12.20;;;-0.80;99.90;;;;;;4998636;28;20945;-47
2021/12/22 04:35:08;;;;;;;18.57;12.03;;;-0.60;99.90;;;;;;4997762;28;20443;-47
2021/12/22 04:37:34;;;;;;;18.97;12.30;;;-0.60;99.90;;;;;;4999264;28;20220;-46
2021/12/22 04:39:59;;;;;;;22.40;12.87;;;-0.90;99.90;;;;;;5001536;28;21474;-46
2021/12/22 04:42:25;;;;;;;22.10;12.20;;;-0.70;99.90;;;;;;5001983;28;20526;-47
2021/12/22 04:44:53;;;;;;;19.87;12.07;;;-0.60;99.90;;;;;;4998803;28;20243;-48
2021/12/22 04:47:20;;;;;;;21.40;12.13;;;-0.70;99.90;;;;;;5000715;28;20202;-47
2021/12/22 04:49:46;;;;;;;18.83;13.50;;;-0.80;99.90;;;;;;4998349;28;20455;-51
2021/12/22 04:52:16;;;;;;;21.00;13.70;;;-0.90;99.90;;;;;;5000560;28;20444;-49
2021/12/22 04:54:50;;;;;;;17.50;12.10;;;-0.70;99.90;;;;;;5000316;28;20949;-47
2021/12/22 04:57:16;;;;;;;19.50;12.10;;;-0.50;99.90;;;;;;4996486;28;20484;-47
2021/12/22 04:59:42;;;;;;;15.90;11.37;;;-0.70;99.90;;;;;;5002264;28;20471;-46
2021/12/22 05:02:07;;;;;;;18.90;13.17;;;-1.10;99.90;;;;;;5004985;28;20200;-48
2021/12/22 05:04:33;;;;;;;19.07;12.27;;;-1.00;99.90;;;;;;5001161;28;20678;-48
2021/12/22 05:06:58;;;;;;;19.40;13.97;;;-0.80;99.90;;;;;;5000210;28;20216;-51
2021/12/22 05:09:24;;;;;;;18.60;12.13;;;-0.70;99.90;;;;;;5001959;28;20196;-47
2021/12/22 05:11:51;;;;;;;19.83;12.70;;;-0.60;99.90;;;;;;5001802;28;20194;-51
2021/12/22 05:14:16;;;;;;;21.03;12.27;;;-0.50;99.90;;;;;;5000163;28;20331;-50
2021/12/22 05:16:46;;;;;;;19.67;11.57;;;-0.60;99.90;;;;;;5000383;28;20543;-51
2021/12/22 05:19:14;;;;;;;19.93;12.20;;;-1.10;99.90;;;;;;4999105;28;20287;-50
2021/12/22 05:21:42;;;;;;;18.83;12.47;;;-1.50;99.90;;;;;;5001325;28;21020;-46
2021/12/22 05:24:07;;;;;;;20.70;12.13;;;-1.50;99.90;;;;;;5001656;28;20436;-47
2021/12/22 05:26:33;;;;;;;20.37;13.20;;;-1.50;99.90;;;;;;5001539;28;20975;-48
2021/12/22 05:28:59;;;;;;;17.07;11.40;;;-1.50;99.90;;;;;;4970512;28;20655;-50
2021/12/22 05:31:25;;;;;;;15.27;12.07;;;-1.40;99.90;;;;;;5000696;28;20275;-47
2021/12/22 05:33:51;;;;;;;19.50;12.53;;;-1.50;99.90;;;;;;4997917;28;20193;-50
2021/12/22 05:36:17;;;;;;;18.80;11.63;;;-1.70;99.90;;;;;;4999865;28;20478;-47
2021/12/22 05:38:42;;;;;;;21.47;13.40;;;-1.90;99.90;;;;;;5001274;28;20258;-47
2021/12/22 05:41:08;;;;;;;18.17;12.17;;;-2.00;99.90;;;;;;5003275;28;20217;-51
2021/12/22 05:43:34;;;;;;;19.97;12.13;;;-2.00;99.90;;;;;;5001846;28;20616;-51
2021/12/22 05:46:00;;;;;;;20.70;12.50;;;-1.90;99.90;;;;;;5000069;28;21202;-49
2021/12/22 05:48:27;;;;;;;20.43;12.30;;;-1.80;99.90;;;;;;5000435;28;20664;-49
2021/12/22 05:50:56;;;;;;;21.67;12.03;;;-1.90;99.90;;;;;;5001619;28;20447;-50
2021/12/22 05:53:22;;;;;;;20.00;11.03;;;-1.80;99.90;;;;;;5000001;28;20882;-48
2021/12/22 05:55:48;;;;;;;20.73;12.10;;;-2.00;99.90;;;;;;4998876;28;20503;-50
2021/12/22 05:58:14;;;;;;;18.13;12.10;;;-2.30;99.90;;;;;;4999530;28;20445;-47
2021/12/22 06:00:40;;;;;;;20.27;14.10;;;-2.00;99.90;;;;;;5001056;28;20224;-49
2021/12/22 06:03:06;;;;;;;23.70;13.00;;;-1.80;99.90;;;;;;5000238;28;20436;-48
2021/12/22 06:05:32;;;;;;;19.07;11.70;;;-2.00;99.90;;;;;;5000325;28;20452;-48
2021/12/22 06:07:57;;;;;;;22.80;12.97;;;-2.20;99.90;;;;;;5002375;28;20218;-48
2021/12/22 06:10:23;;;;;;;16.90;11.50;;;-2.30;99.90;;;;;;4984334;28;20201;-50
2021/12/22 06:12:49;;;;;;;20.43;13.23;;;-2.30;99.90;;;;;;5001627;28;20255;-50
2021/12/22 06:15:14;;;;;;;20.10;12.50;;;-2.40;99.90;;;;;;4998149;28;20285;-52
2021/12/22 06:17:40;;;;;;;20.80;12.07;;;-2.60;99.90;;;;;;5001507;28;20223;-49
2021/12/22 06:20:06;;;;;;;20.13;13.83;;;-2.50;99.90;;;;;;4998412;28;20211;-51
2021/12/22 06:22:34;;;;;;;17.53;12.10;;;-2.50;99.90;;;;;;4999435;28;20239;-48
2021/12/22 06:25:00;;;;;;;22.70;13.40;;;-2.60;99.90;;;;;;4984956;28;20494;-48
2021/12/22 06:27:26;;;;;;;21.63;11.07;;;-2.80;99.90;;;;;;5000281;28;20466;-51
2021/12/22 06:29:51;;;;;;;20.90;13.80;;;-2.70;99.90;;;;;;5000523;28;20677;-48
2021/12/22 06:32:17;;;;;;;23.63;14.43;;;-2.70;99.90;;;;;;4999554;28;20219;-49
2021/12/22 06:34:43;;;;;;;25.50;14.37;;;-2.90;99.90;;;;;;4998838;28;20299;-47
2021/12/22 06:37:08;;;;;;;22.20;12.70;;;-2.80;99.90;;;;;;4997313;28;20834;-52
2021/12/22 06:39:34;;;;;;;21.70;13.70;;;-2.50;99.90;;;;;;4999797;28;20308;-51
2021/12/22 06:42:00;;;;;;;20.87;12.77;;;-2.30;99.90;;;;;;4999920;28;20558;-48
2021/12/22 06:44:26;;;;;;;23.97;13.70;;;-2.60;99.90;;;;;;4998752;28;20268;-51
2021/12/22 06:46:52;;;;;;;22.90;11.90;;;-2.80;99.90;;;;;;4996737;28;20296;-48
2021/12/22 06:49:18;;;;;;;21.43;12.67;;;-2.50;99.90;;;;;;4996522;28;20441;-50
2021/12/22 06:51:44;;;;;;;17.13;12.17;;;-2.40;99.90;;;;;;4998976;28;20449;-52
2021/12/22 06:54:09;;;;;;;21.90;11.73;;;-2.80;99.90;;;;;;4997779;28;20439;-48
2021/12/22 06:56:35;;;;;;;20.00;10.97;;;-2.70;99.90;;;;;;4997951;28;20719;-51
2021/12/22 06:59:01;;;;;;;20.80;11.50;;;-2.50;99.90;;;;;;4997195;28;20269;-49
2021/12/22 07:01:31;;;;;;;21.43;11.60;;;-2.50;99.90;;;;;;4996111;28;20462;-47
2021/12/22 07:03:56;;;;;;;25.33;13.17;;;-2.80;99.90;;;;;;4996227;28;20444;-49
2021/12/22 07:06:22;;;;;;;18.93;11.87;;;-3.10;99.90;;;;;;4995707;28;20848;-50
2021/12/22 07:08:48;;;;;;;20.57;11.70;;;-3.00;99.90;;;;;;4997481;28;20219;-51
2021/12/22 07:11:13;;;;;;;23.67;12.30;;;-2.60;99.90;;;;;;4981813;28;20207;-47
2021/12/22 07:13:39;;;;;;;16.67;9.93;;;-2.50;99.90;;;;;;4999779;28;20195;-48
2021/12/22 07:16:05;;;;;;;21.03;12.80;;;-2.40;99.90;;;;;;4995043;28;20220;-47
2021/12/22 07:18:32;;;;;;;22.17;13.23;;;-2.50;99.90;;;;;;4997362;28;20196;-50
2021/12/22 07:20:59;;;;;;;17.07;11.63;;;-2.90;99.90;;;;;;4997163;28;20212;-48
2021/12/22 07:23:25;;;;;;;22.03;12.83;;;-2.80;99.90;;;;;;4996628;28;21137;-49
2021/12/22 07:25:50;;;;;;;24.23;13.03;;;-2.50;99.90;;;;;;4997881;28;20482;-47
2021/12/22 07:28:16;;;;;;;18.83;11.43;;;-2.60;99.90;;;;;;4997849;28;20478;-49
2021/12/22 07:30:42;;;;;;;21.33;12.20;;;-2.60;99.90;;;;;;4997414;28;20284;-47
2021/12/22 07:33:08;;;;;;;22.33;13.23;;;-2.80;99.90;;;;;;4997139;28;20856;-47
2021/12/22 07:35:42;;;;;;;21.40;12.23;;;-2.70;99.90;;;;;;4996635;28;20192;-46
2021/12/22 07:38:21;;;;;;;25.67;14.23;;;-2.90;99.90;;;;;;4997373;28;21084;-45
2021/12/22 07:40:46;;;;;;;19.63;12.07;;;-2.80;99.90;;;;;;4997403;28;20474;-48
2021/12/22 07:43:12;;;;;;;19.50;12.80;;;-2.70;99.90;;;;;;4995010;28;21302;-50
2021/12/22 07:45:38;;;;;;;19.20;13.60;;;-2.70;99.90;;;;;;4999820;28;20213;-49
2021/12/22 07:48:03;;;;;;;28.83;14.50;;;-3.00;99.90;;;;;;4996982;28;20606;-51
2021/12/22 07:50:29;;;;;;;25.53;13.33;;;-3.10;99.90;;;;;;4997718;28;20280;-50
2021/12/22 07:52:55;;;;;;;24.80;14.67;;;-2.90;99.90;;;;;;4982592;28;20453;-46
2021/12/22 07:55:21;;;;;;;29.97;14.93;;;-3.00;99.90;;;;;;4997760;28;20221;-47
2021/12/22 07:57:46;;;;;;;33.90;14.80;;;-2.90;99.90;;;;;;5000057;28;20482;-46
2021/12/22 08:00:13;;;;;;;25.10;13.33;;;-3.00;99.90;;;;;;4999646;28;20213;-45
2021/12/22 08:02:39;;;;;;;29.43;15.97;;;-3.10;99.90;;;;;;4999288;28;20209;-48
2021/12/22 08:05:05;;;;;;;30.03;15.07;;;-3.00;99.90;;;;;;5000486;28;20436;-49
2021/12/22 08:07:31;;;;;;;26.83;14.30;;;-2.90;99.90;;;;;;5003139;28;20840;-46
2021/12/22 08:09:56;;;;;;;33.60;16.13;;;-2.80;99.90;;;;;;5004480;28;20445;-48
2021/12/22 08:12:22;;;;;;;28.97;15.83;;;-2.60;99.90;;;;;;5002226;28;20218;-46
2021/12/22 08:14:47;;;;;;;32.27;15.60;;;-2.60;99.90;;;;;;5003565;28;21865;-47
2021/12/22 08:17:13;;;;;;;34.27;16.30;;;-2.50;99.90;;;;;;5005190;28;20303;-46
2021/12/22 08:19:40;;;;;;;34.20;16.97;;;-2.20;99.90;;;;;;5001127;28;20212;-46
2021/12/22 08:22:06;;;;;;;35.07;17.63;;;-2.00;99.90;;;;;;5003488;28;20435;-46
2021/12/22 08:24:32;;;;;;;29.70;16.83;;;-1.90;99.90;;;;;;5001031;28;20428;-49
2021/12/22 08:26:59;;;;;;;37.57;17.50;;;-1.90;99.90;;;;;;5003213;28;20213;-49
2021/12/22 08:29:25;;;;;;;34.80;17.53;;;-1.70;99.90;;;;;;4985606;28;20444;-46
2021/12/22 08:31:51;;;;;;;31.47;17.07;;;-1.60;99.90;;;;;;5002422;28;20482;-45
2021/12/22 08:34:23;;;;;;;32.87;16.97;;;-1.30;99.90;;;;;;5003672;28;20949;-47
2021/12/22 08:39:34;;;;;;;34.33;18.10;;;-1.20;99.90;;;;;;4993467;28;20478;-47
2021/12/22 08:42:00;;;;;;;29.13;15.90;;;-1.00;99.90;;;;;;5002760;28;20437;-48
2021/12/22 08:44:26;;;;;;;28.93;15.80;;;-0.90;99.90;;;;;;5002325;28;20477;-48
2021/12/22 08:46:52;;;;;;;34.27;17.13;;;-0.70;99.90;;;;;;5000038;28;20552;-51
2021/12/22 08:49:20;;;;;;;32.20;16.93;;;-0.70;99.90;;;;;;4996498;28;20919;-50
2021/12/22 08:51:46;;;;;;;31.63;16.63;;;-1.00;99.90;;;;;;5002509;28;20440;-46
2021/12/22 08:54:12;;;;;;;29.87;16.40;;;-1.10;99.90;;;;;;4999739;28;20426;-51
2021/12/22 08:56:39;;;;;;;34.07;15.67;;;-0.90;99.90;;;;;;4997341;28;20627;-50
2021/12/22 08:59:07;;;;;;;28.53;17.30;;;-1.40;99.90;;;;;;5004213;28;20200;-50
2021/12/22 09:01:33;;;;;;;30.73;16.50;;;-1.50;99.90;;;;;;4999958;28;20563;-52
2021/12/22 09:03:59;;;;;;;31.20;16.47;;;-1.30;99.90;;;;;;5000571;28;20538;-48
2021/12/22 09:06:24;;;;;;;31.03;17.57;;;-0.90;99.90;;;;;;5000666;28;20647;-51
2021/12/22 09:08:51;;;;;;;31.93;17.50;;;-0.60;99.90;;;;;;4999974;28;20250;-52
2021/12/22 09:11:17;;;;;;;31.53;18.03;;;-1.00;99.90;;;;;;4998594;28;20271;-49
2021/12/22 09:13:42;;;;;;;33.27;17.97;;;-0.90;99.90;;;;;;4983607;28;20450;-49
2021/12/22 09:16:09;;;;;;;29.47;17.10;;;-0.80;99.90;;;;;;4999579;28;20252;-47
2021/12/22 09:18:36;;;;;;;35.33;17.13;;;-1.10;99.90;;;;;;4998910;28;20448;-47
2021/12/22 09:21:02;;;;;;;36.17;20.37;;;-0.90;99.90;;;;;;4996523;28;20479;-50
2021/12/22 09:23:28;;;;;;;38.90;18.50;;;-0.60;99.90;;;;;;5003537;28;20425;-50
2021/12/22 09:25:53;;;;;;;37.97;17.73;;;-0.40;99.90;;;;;;4999775;28;21018;-51
2021/12/22 09:28:19;;;;;;;33.20;18.40;;;-0.30;99.90;;;;;;5001536;28;20196;-48
2021/12/22 09:30:46;;;;;;;32.00;17.10;;;-0.20;99.90;;;;;;5002584;28;20204;-47
2021/12/22 09:33:16;;;;;;;33.97;17.87;;;-0.30;99.90;;;;;;4999824;28;20560;-48
2021/12/22 09:35:44;;;;;;;32.37;16.73;;;-0.20;99.90;;;;;;4997307;28;20503;-49
2021/12/22 09:38:10;;;;;;;40.10;19.97;;;-0.10;99.90;;;;;;5001669;28;20445;-49
2021/12/22 09:40:37;;;;;;;29.20;17.73;;;-0.40;99.90;;;;;;4999084;28;20529;-48
2021/12/22 09:43:03;;;;;;;38.20;19.77;;;-0.80;99.90;;;;;;5001746;28;20269;-48
2021/12/22 09:45:29;;;;;;;31.53;19.00;;;-0.80;99.90;;;;;;5000641;28;20949;-47
2021/12/22 09:50:45;;;;;;;32.57;19.27;;;-0.70;99.90;;;;;;5000341;28;20200;-46
2021/12/22 09:53:11;;;;;;;37.33;18.87;;;-0.90;99.90;;;;;;4998582;28;20491;-47
2021/12/22 09:55:36;;;;;;;35.00;18.53;;;-1.10;99.90;;;;;;4999351;28;20468;-50
2021/12/22 09:58:04;;;;;;;34.47;19.17;;;-1.10;99.90;;;;;;5001779;28;20475;-50
2021/12/22 10:00:33;;;;;;;35.20;19.60;;;-1.20;99.90;;;;;;5001167;28;20592;-48
2021/12/22 10:02:59;;;;;;;43.43;19.73;;;-1.00;99.90;;;;;;5004320;28;20801;-48
2021/12/22 10:05:24;;;;;;;39.50;20.93;;;-1.20;99.90;;;;;;4997429;28;20440;-49
2021/12/22 10:08:15;;;;;;;34.90;17.40;;;-1.20;99.90;;;;;;5000128;28;20247;-50
2021/12/22 10:10:47;;;;;;;33.83;19.17;;;-1.10;99.90;;;;;;4999300;28;20281;-50
2021/12/22 10:13:22;;;;;;;34.97;20.50;;;-1.10;99.90;;;;;;5000657;28;20435;-45
2021/12/22 10:15:49;;;;;;;43.23;20.20;;;-1.00;99.90;;;;;;5001715;28;20869;-48
2021/12/22 10:18:22;;;;;;;44.10;20.57;;;-1.40;99.90;;;;;;4996267;28;20455;-47
2021/12/22 10:20:50;;;;;;;36.47;19.93;;;-1.20;99.90;;;;;;4999445;28;20724;-51
2021/12/22 10:23:23;;;;;;;34.10;19.20;;;-0.90;99.90;;;;;;4993103;28;20461;-49
2021/12/22 10:25:56;;;;;;;38.80;19.93;;;-1.00;99.90;;;;;;4991831;28;20465;-48
2021/12/22 10:28:22;;;;;;;36.77;21.30;;;-0.90;99.90;;;;;;4994145;28;20444;-48
2021/12/22 10:30:50;;;;;;;42.30;21.20;;;-0.90;99.90;;;;;;4986028;28;23035;-45
2021/12/22 10:33:25;;;;;;;38.03;19.90;;;-0.50;99.90;;;;;;4987896;28;20497;-47
2021/12/22 10:35:53;;;;;;;40.77;19.70;;;-0.30;99.90;;;;;;4990968;28;20459;-47
2021/12/22 10:38:22;;;;;;;33.47;18.47;;;-0.20;99.90;;;;;;4985410;28;20457;-46
2021/12/22 10:40:53;;;;;;;39.13;19.33;;;-0.20;99.90;;;;;;4988190;28;21113;-46
2021/12/22 10:43:30;;;;;;;38.43;18.93;;;-0.20;99.90;;;;;;4990322;28;20490;-45
2021/12/22 10:46:02;;;;;;;42.30;19.67;;;-0.20;99.90;;;;;;4992413;28;20486;-49
2021/12/22 10:51:32;;;;;;;38.30;19.07;;;-0.30;99.90;;;;;;4996449;28;20464;-46
2021/12/22 10:53:59;;;;;;;37.87;19.03;;;-0.30;99.90;;;;;;4995228;28;20705;-50
2021/12/22 10:56:34;;;;;;;31.57;16.87;;;-0.10;99.90;;;;;;4999639;28;20460;-49
2021/12/22 10:59:19;;;;;;;34.40;19.73;;;0.10;99.90;;;;;;5001433;28;20471;-50
2021/12/22 11:01:54;;;;;;;29.00;16.73;;;-0.10;99.90;;;;;;4996520;28;20444;-50
2021/12/22 11:04:25;;;;;;;33.57;18.80;;;-0.20;99.90;;;;;;4994790;28;20503;-50
2021/12/22 11:06:53;;;;;;;34.40;19.50;;;-0.20;99.90;;;;;;4995861;28;20463;-47
2021/12/22 11:09:20;;;;;;;34.80;19.27;;;-0.10;99.90;;;;;;4996568;28;20433;-50
2021/12/22 11:11:49;;;;;;;30.47;17.10;;;-0.20;99.90;;;;;;4998429;28;20485;-50
2021/12/22 11:14:19;;;;;;;37.23;18.13;;;-0.40;99.90;;;;;;4982467;28;20482;-48
2021/12/22 11:17:12;;;;;;;35.87;19.00;;;-0.10;99.90;;;;;;5003768;28;20444;-50
2021/12/22 11:19:48;;;;;;;35.13;19.40;;;-0.30;99.90;;;;;;4999100;28;20840;-46
2021/12/22 11:22:15;;;;;;;36.37;18.77;;;-0.20;99.90;;;;;;4996671;28;20469;-47
2021/12/22 11:24:50;;;;;;;42.47;21.40;;;-0.40;99.90;;;;;;5002472;28;20506;-50
2021/12/22 11:27:22;;;;;;;35.10;18.77;;;-0.40;99.90;;;;;;4999076;28;20463;-51
2021/12/22 11:29:51;;;;;;;36.83;19.67;;;-0.30;99.90;;;;;;4999809;28;21834;-50
2021/12/22 11:32:20;;;;;;;38.70;19.93;;;-0.10;99.90;;;;;;4997309;28;20515;-50
2021/12/22 11:34:57;;;;;;;36.53;18.60;;;0.20;99.90;;;;;;4999690;28;20962;-50
2021/12/22 11:37:24;;;;;;;37.07;19.97;;;0.20;99.90;;;;;;4998027;28;20514;-52
2021/12/22 11:39:50;;;;;;;34.90;19.40;;;0.30;99.90;;;;;;4999065;28;21105;-46
2021/12/22 11:42:16;;;;;;;36.80;20.60;;;0.20;99.90;;;;;;4995953;28;20433;-50
2021/12/22 11:44:50;;;;;;;38.20;20.20;;;0.10;99.90;;;;;;4989364;28;20440;-52
2021/12/22 11:47:16;;;;;;;38.30;21.33;;;0.40;99.90;;;;;;4977909;28;21366;-51
2021/12/22 11:49:59;;;;;;;36.63;19.47;;;0.30;99.90;;;;;;4993524;28;20449;-50
2021/12/22 11:52:43;;;;;;;34.03;20.70;;;0.20;99.90;;;;;;4996232;28;20444;-49
2021/12/22 11:55:22;;;;;;;32.80;18.63;;;0.00;99.90;;;;;;4991816;28;20445;-48
2021/12/22 11:57:53;;;;;;;34.63;19.13;;;0.10;99.90;;;;;;4989098;28;21075;-49
2021/12/22 12:00:24;;;;;;;35.87;18.80;;;0.10;99.90;;;;;;4990556;28;20468;-50
2021/12/22 12:02:51;;;;;;;39.20;21.00;;;0.00;99.90;;;;;;4992594;28;20454;-48
2021/12/22 12:05:22;;;;;;;37.30;19.87;;;-0.20;99.90;;;;;;4990725;28;20856;-48
2021/12/22 12:07:56;;;;;;;35.90;18.90;;;-0.30;99.90;;;;;;4995040;28;21360;-49
2021/12/22 12:10:46;;;;;;;36.67;20.80;;;-0.20;99.90;;;;;;4992253;28;20601;-47
2021/12/22 12:13:38;;;;;;;35.63;18.93;;;-0.40;99.90;;;;;;4991939;28;20446;-50
2021/12/22 12:22:14;;;;;;;37.27;20.00;;;0.10;99.90;;;;;;4994425;28;20474;-51
2021/12/22 12:24:47;;;;;;;39.50;20.10;;;0.40;99.90;;;;;;4996367;28;20484;-49
2021/12/22 12:27:34;;;;;;;32.60;18.97;;;0.70;99.90;;;;;;4992433;28;20544;-48
2021/12/22 12:30:04;;;;;;;34.53;20.20;;;0.70;99.90;;;;;;4990763;28;20441;-50
2021/12/22 12:32:39;;;;;;;31.63;19.73;;;0.50;99.90;;;;;;4991877;28;20447;-48
2021/12/22 12:35:23;;;;;;;37.60;22.17;;;0.10;99.90;;;;;;4991901;28;20534;-48
2021/12/22 12:38:19;;;;;;;38.23;20.77;;;0.10;99.90;;;;;;4986084;28;20441;-47
2021/12/22 12:41:05;;;;;;;37.57;20.13;;;0.50;99.90;;;;;;4990898;28;20846;-46
2021/12/22 12:43:44;;;;;;;41.60;21.40;;;0.80;99.90;;;;;;4995242;28;20435;-48
2021/12/22 12:46:24;;;;;;;39.03;20.93;;;0.80;99.90;;;;;;4992587;28;20792;-50
2021/12/22 12:49:16;;;;;;;39.10;20.73;;;0.70;99.90;;;;;;4993164;28;20528;-48
2021/12/22 12:51:46;;;;;;;33.80;19.97;;;0.70;99.90;;;;;;4992088;28;20445;-50
2021/12/22 12:54:18;;;;;;;42.33;23.10;;;0.70;99.90;;;;;;4993107;28;20532;-48
2021/12/22 12:56:45;;;;;;;44.30;21.30;;;0.40;99.90;;;;;;4994337;28;20844;-46
2021/12/22 12:59:16;;;;;;;44.10;23.33;;;0.60;99.90;;;;;;4996717;28;20442;-47
2021/12/22 13:01:50;;;;;;;37.90;20.33;;;0.70;99.90;;;;;;4992138;28;20469;-48
2021/12/22 13:04:23;;;;;;;36.57;20.87;;;0.70;99.90;;;;;;4991907;28;20438;-47
2021/12/22 13:06:53;;;;;;;36.20;19.50;;;0.70;99.90;;;;;;5000218;28;20461;-51
2021/12/22 13:09:33;;;;;;;37.40;21.17;;;1.00;99.90;;;;;;4995704;28;20540;-50